sim
Sign-in with your pilot id or email,
or register
Callsign
Passwort

Schedule Details

Flight Number: RYR1066 (1)
Departure: Athens Eleftherios Venizelos (LGAV) at 05:05
Arrival: Thessaloniki International Airport (LGTS) at 06:05
Route: Ryanair Passenger Schedule. Enter filed route here before submitting Pirep.

Weather Information
Getting current METAR information for LGAV 211120Z 04013KT 9999 FEW030 16/04 Q1023 NOSIG
Getting current METAR information for LGTS 211120Z 33019KT CAVOK 16/M01 Q1023 NOSIG

Schedule Frequency

Route Map